sensor_id;sensor_type;location;lat;lon;timestamp;P1;durP1;ratioP1;P2;durP2;ratioP2
37087;SDS011;23002;52.676;6.432;2023-02-15T00:01:47;52.80;;;21.67;;
37087;SDS011;23002;52.676;6.432;2023-02-15T00:04:15;48.72;;;23.27;;
37087;SDS011;23002;52.676;6.432;2023-02-15T00:06:43;50.88;;;22.98;;
37087;SDS011;23002;52.676;6.432;2023-02-15T00:09:10;50.15;;;22.00;;
37087;SDS011;23002;52.676;6.432;2023-02-15T00:11:38;52.80;;;22.52;;
37087;SDS011;23002;52.676;6.432;2023-02-15T00:14:18;50.85;;;21.77;;
37087;SDS011;23002;52.676;6.432;2023-02-15T00:16:46;45.08;;;22.58;;
37087;SDS011;23002;52.676;6.432;2023-02-15T00:19:14;52.95;;;22.95;;
37087;SDS011;23002;52.676;6.432;2023-02-15T00:21:42;53.55;;;22.60;;
37087;SDS011;23002;52.676;6.432;2023-02-15T00:24:10;47.30;;;22.42;;
37087;SDS011;23002;52.676;6.432;2023-02-15T00:26:38;52.25;;;23.13;;
37087;SDS011;23002;52.676;6.432;2023-02-15T00:29:05;40.70;;;20.85;;
37087;SDS011;23002;52.676;6.432;2023-02-15T00:31:33;50.08;;;21.85;;
37087;SDS011;23002;52.676;6.432;2023-02-15T00:36:30;47.08;;;22.10;;
37087;SDS011;23002;52.676;6.432;2023-02-15T00:38:58;42.20;;;20.70;;
37087;SDS011;23002;52.676;6.432;2023-02-15T00:41:25;43.08;;;20.90;;
37087;SDS011;23002;52.676;6.432;2023-02-15T00:43:52;47.35;;;21.13;;
37087;SDS011;23002;52.676;6.432;2023-02-15T00:46:19;45.38;;;22.05;;
37087;SDS011;23002;52.676;6.432;2023-02-15T00:48:47;38.38;;;18.95;;
37087;SDS011;23002;52.676;6.432;2023-02-15T00:51:14;44.28;;;20.52;;
37087;SDS011;23002;52.676;6.432;2023-02-15T00:53:41;41.67;;;19.75;;
37087;SDS011;23002;52.676;6.432;2023-02-15T00:56:08;40.03;;;18.17;;
37087;SDS011;23002;52.676;6.432;2023-02-15T00:58:35;38.72;;;19.35;;
37087;SDS011;23002;52.676;6.432;2023-02-15T01:01:03;37.40;;;19.02;;
37087;SDS011;23002;52.676;6.432;2023-02-15T01:03:31;42.38;;;18.45;;
37087;SDS011;23002;52.676;6.432;2023-02-15T01:05:59;36.53;;;17.92;;
37087;SDS011;23002;52.676;6.432;2023-02-15T01:08:26;37.55;;;17.63;;
37087;SDS011;23002;52.676;6.432;2023-02-15T01:10:53;36.70;;;17.77;;
37087;SDS011;23002;52.676;6.432;2023-02-15T01:13:21;36.80;;;19.25;;
37087;SDS011;23002;52.676;6.432;2023-02-15T01:15:52;36.38;;;17.02;;
37087;SDS011;23002;52.676;6.432;2023-02-15T01:20:48;31.13;;;16.15;;
37087;SDS011;23002;52.676;6.432;2023-02-15T01:23:15;31.52;;;16.27;;
37087;SDS011;23002;52.676;6.432;2023-02-15T01:25:42;35.40;;;17.13;;
37087;SDS011;23002;52.676;6.432;2023-02-15T01:28:09;35.60;;;18.85;;
37087;SDS011;23002;52.676;6.432;2023-02-15T01:30:36;33.15;;;18.50;;
37087;SDS011;23002;52.676;6.432;2023-02-15T01:33:04;44.65;;;19.95;;
37087;SDS011;23002;52.676;6.432;2023-02-15T01:35:31;37.92;;;19.13;;
37087;SDS011;23002;52.676;6.432;2023-02-15T01:37:58;34.30;;;16.95;;
37087;SDS011;23002;52.676;6.432;2023-02-15T01:40:25;37.95;;;17.73;;
37087;SDS011;23002;52.676;6.432;2023-02-15T01:42:52;33.55;;;16.45;;
37087;SDS011;23002;52.676;6.432;2023-02-15T01:45:25;42.03;;;17.95;;
37087;SDS011;23002;52.676;6.432;2023-02-15T01:50:25;32.10;;;15.65;;
37087;SDS011;23002;52.676;6.432;2023-02-15T01:52:58;38.08;;;18.00;;
37087;SDS011;23002;52.676;6.432;2023-02-15T01:57:53;38.95;;;16.10;;
37087;SDS011;23002;52.676;6.432;2023-02-15T02:00:21;32.38;;;17.10;;
37087;SDS011;23002;52.676;6.432;2023-02-15T02:02:48;32.95;;;16.52;;
37087;SDS011;23002;52.676;6.432;2023-02-15T02:05:17;39.38;;;18.42;;
37087;SDS011;23002;52.676;6.432;2023-02-15T02:07:44;37.72;;;18.42;;
37087;SDS011;23002;52.676;6.432;2023-02-15T02:10:13;41.38;;;19.35;;
37087;SDS011;23002;52.676;6.432;2023-02-15T02:12:42;37.00;;;18.83;;
37087;SDS011;23002;52.676;6.432;2023-02-15T02:15:10;46.38;;;20.23;;
37087;SDS011;23002;52.676;6.432;2023-02-15T02:35:53;63.33;;;20.02;;
37087;SDS011;23002;52.676;6.432;2023-02-15T02:40:53;94.30;;;18.92;;
37087;SDS011;23002;52.676;6.432;2023-02-15T02:48:18;64.78;;;20.52;;
37087;SDS011;23002;52.676;6.432;2023-02-15T02:50:46;37.45;;;17.40;;
37087;SDS011;23002;52.676;6.432;2023-02-15T02:53:13;55.55;;;20.15;;
37087;SDS011;23002;52.676;6.432;2023-02-15T02:58:09;38.75;;;18.42;;
37087;SDS011;23002;52.676;6.432;2023-02-15T03:00:40;41.25;;;18.80;;
37087;SDS011;23002;52.676;6.432;2023-02-15T03:03:11;44.60;;;19.88;;
37087;SDS011;23002;52.676;6.432;2023-02-15T03:05:41;57.33;;;17.67;;
37087;SDS011;23002;52.676;6.432;2023-02-15T03:08:10;43.42;;;18.83;;
37087;SDS011;23002;52.676;6.432;2023-02-15T03:10:39;42.75;;;20.00;;
37087;SDS011;23002;52.676;6.432;2023-02-15T03:13:07;49.28;;;19.73;;
37087;SDS011;23002;52.676;6.432;2023-02-15T03:15:36;74.57;;;21.33;;
37087;SDS011;23002;52.676;6.432;2023-02-15T03:18:24;46.75;;;18.27;;
37087;SDS011;23002;52.676;6.432;2023-02-15T03:20:52;56.08;;;19.30;;
37087;SDS011;23002;52.676;6.432;2023-02-15T03:23:20;43.45;;;19.55;;
37087;SDS011;23002;52.676;6.432;2023-02-15T03:25:52;66.10;;;20.52;;
37087;SDS011;23002;52.676;6.432;2023-02-15T03:28:26;65.47;;;22.90;;
37087;SDS011;23002;52.676;6.432;2023-02-15T03:30:55;53.28;;;20.63;;
37087;SDS011;23002;52.676;6.432;2023-02-15T03:33:23;57.53;;;21.50;;
37087;SDS011;23002;52.676;6.432;2023-02-15T03:36:02;63.28;;;22.30;;
37087;SDS011;23002;52.676;6.432;2023-02-15T03:38:55;90.82;;;20.60;;
37087;SDS011;23002;52.676;6.432;2023-02-15T03:41:20;77.13;;;21.45;;
37087;SDS011;23002;52.676;6.432;2023-02-15T03:43:51;77.18;;;22.48;;
37087;SDS011;23002;52.676;6.432;2023-02-15T03:46:33;46.67;;;19.73;;
37087;SDS011;23002;52.676;6.432;2023-02-15T03:49:24;40.38;;;20.02;;
37087;SDS011;23002;52.676;6.432;2023-02-15T03:51:50;40.70;;;18.38;;
37087;SDS011;23002;52.676;6.432;2023-02-15T03:57:20;48.45;;;19.52;;
37087;SDS011;23002;52.676;6.432;2023-02-15T04:00:09;38.92;;;19.58;;
37087;SDS011;23002;52.676;6.432;2023-02-15T04:03:05;46.78;;;19.40;;
37087;SDS011;23002;52.676;6.432;2023-02-15T04:05:34;43.55;;;19.67;;
37087;SDS011;23002;52.676;6.432;2023-02-15T04:08:01;40.88;;;18.50;;
37087;SDS011;23002;52.676;6.432;2023-02-15T04:10:28;55.38;;;20.20;;
37087;SDS011;23002;52.676;6.432;2023-02-15T04:13:14;60.90;;;20.70;;
37087;SDS011;23002;52.676;6.432;2023-02-15T04:15:41;57.58;;;20.75;;
37087;SDS011;23002;52.676;6.432;2023-02-15T04:18:32;48.92;;;20.23;;
37087;SDS011;23002;52.676;6.432;2023-02-15T04:21:18;70.57;;;21.15;;
37087;SDS011;23002;52.676;6.432;2023-02-15T04:24:04;60.30;;;19.83;;
37087;SDS011;23002;52.676;6.432;2023-02-15T04:26:50;101.63;;;24.13;;
37087;SDS011;23002;52.676;6.432;2023-02-15T04:29:19;55.50;;;20.20;;
37087;SDS011;23002;52.676;6.432;2023-02-15T04:31:46;63.08;;;22.40;;
37087;SDS011;23002;52.676;6.432;2023-02-15T04:34:14;72.82;;;23.38;;
37087;SDS011;23002;52.676;6.432;2023-02-15T04:36:41;86.32;;;22.80;;
37087;SDS011;23002;52.676;6.432;2023-02-15T04:39:09;98.40;;;26.73;;
37087;SDS011;23002;52.676;6.432;2023-02-15T04:41:36;46.28;;;18.90;;
37087;SDS011;23002;52.676;6.432;2023-02-15T04:44:03;62.35;;;21.20;;
37087;SDS011;23002;52.676;6.432;2023-02-15T04:46:31;55.10;;;21.38;;
37087;SDS011;23002;52.676;6.432;2023-02-15T04:48:58;66.82;;;20.40;;
37087;SDS011;23002;52.676;6.432;2023-02-15T04:51:25;38.63;;;19.95;;
37087;SDS011;23002;52.676;6.432;2023-02-15T04:53:52;63.28;;;20.60;;
37087;SDS011;23002;52.676;6.432;2023-02-15T04:56:20;56.47;;;20.58;;
37087;SDS011;23002;52.676;6.432;2023-02-15T04:58:47;44.88;;;20.45;;
37087;SDS011;23002;52.676;6.432;2023-02-15T05:01:14;64.10;;;19.25;;
37087;SDS011;23002;52.676;6.432;2023-02-15T05:03:42;55.45;;;22.45;;
37087;SDS011;23002;52.676;6.432;2023-02-15T05:06:09;53.08;;;20.27;;
37087;SDS011;23002;52.676;6.432;2023-02-15T05:08:36;48.47;;;19.83;;
37087;SDS011;23002;52.676;6.432;2023-02-15T05:11:03;47.28;;;20.17;;
37087;SDS011;23002;52.676;6.432;2023-02-15T05:13:30;53.58;;;19.45;;
37087;SDS011;23002;52.676;6.432;2023-02-15T05:15:57;49.08;;;19.70;;
37087;SDS011;23002;52.676;6.432;2023-02-15T05:18:25;49.03;;;19.42;;
37087;SDS011;23002;52.676;6.432;2023-02-15T05:20:52;51.08;;;21.67;;
37087;SDS011;23002;52.676;6.432;2023-02-15T05:23:19;50.60;;;20.00;;
37087;SDS011;23002;52.676;6.432;2023-02-15T05:25:50;47.55;;;17.73;;
37087;SDS011;23002;52.676;6.432;2023-02-15T05:28:36;47.15;;;19.55;;
37087;SDS011;23002;52.676;6.432;2023-02-15T05:33:31;52.63;;;19.00;;
37087;SDS011;23002;52.676;6.432;2023-02-15T05:35:59;45.45;;;18.85;;
37087;SDS011;23002;52.676;6.432;2023-02-15T05:38:27;41.90;;;18.15;;
37087;SDS011;23002;52.676;6.432;2023-02-15T05:40:54;42.28;;;19.13;;
37087;SDS011;23002;52.676;6.432;2023-02-15T05:43:22;45.90;;;20.13;;
37087;SDS011;23002;52.676;6.432;2023-02-15T05:45:50;37.80;;;18.27;;
37087;SDS011;23002;52.676;6.432;2023-02-15T05:48:18;44.28;;;18.23;;
37087;SDS011;23002;52.676;6.432;2023-02-15T05:50:45;33.28;;;16.30;;
37087;SDS011;23002;52.676;6.432;2023-02-15T05:53:12;42.88;;;19.23;;
37087;SDS011;23002;52.676;6.432;2023-02-15T05:55:40;43.28;;;19.75;;
37087;SDS011;23002;52.676;6.432;2023-02-15T05:58:07;39.85;;;18.30;;
37087;SDS011;23002;52.676;6.432;2023-02-15T06:00:34;44.90;;;19.73;;
37087;SDS011;23002;52.676;6.432;2023-02-15T06:03:03;44.25;;;18.17;;
37087;SDS011;23002;52.676;6.432;2023-02-15T06:05:30;42.17;;;18.20;;
37087;SDS011;23002;52.676;6.432;2023-02-15T06:07:57;42.30;;;18.70;;
37087;SDS011;23002;52.676;6.432;2023-02-15T06:10:24;35.42;;;18.40;;
37087;SDS011;23002;52.676;6.432;2023-02-15T06:12:51;42.28;;;20.23;;
37087;SDS011;23002;52.676;6.432;2023-02-15T06:15:18;42.72;;;19.65;;
37087;SDS011;23002;52.676;6.432;2023-02-15T06:17:45;42.55;;;18.23;;
37087;SDS011;23002;52.676;6.432;2023-02-15T06:20:13;39.15;;;17.95;;
37087;SDS011;23002;52.676;6.432;2023-02-15T06:22:40;42.63;;;18.65;;
37087;SDS011;23002;52.676;6.432;2023-02-15T06:25:07;39.13;;;17.60;;
37087;SDS011;23002;52.676;6.432;2023-02-15T06:27:36;40.28;;;18.98;;
37087;SDS011;23002;52.676;6.432;2023-02-15T06:30:05;42.65;;;18.83;;
37087;SDS011;23002;52.676;6.432;2023-02-15T06:32:33;47.70;;;18.25;;
37087;SDS011;23002;52.676;6.432;2023-02-15T06:35:00;38.20;;;18.77;;
37087;SDS011;23002;52.676;6.432;2023-02-15T06:37:27;35.58;;;17.85;;
37087;SDS011;23002;52.676;6.432;2023-02-15T06:39:54;42.55;;;16.30;;
37087;SDS011;23002;52.676;6.432;2023-02-15T06:42:21;46.90;;;18.77;;
37087;SDS011;23002;52.676;6.432;2023-02-15T06:44:49;45.72;;;20.95;;
37087;SDS011;23002;52.676;6.432;2023-02-15T06:47:16;41.83;;;19.00;;
37087;SDS011;23002;52.676;6.432;2023-02-15T06:49:43;40.08;;;18.75;;
37087;SDS011;23002;52.676;6.432;2023-02-15T06:52:10;41.42;;;18.42;;
37087;SDS011;23002;52.676;6.432;2023-02-15T06:54:39;48.28;;;19.20;;
37087;SDS011;23002;52.676;6.432;2023-02-15T06:57:06;42.90;;;17.92;;
37087;SDS011;23002;52.676;6.432;2023-02-15T06:59:35;56.15;;;20.30;;
37087;SDS011;23002;52.676;6.432;2023-02-15T07:02:02;46.50;;;19.55;;
37087;SDS011;23002;52.676;6.432;2023-02-15T07:04:29;50.83;;;20.25;;
37087;SDS011;23002;52.676;6.432;2023-02-15T07:06:57;50.28;;;21.30;;
37087;SDS011;23002;52.676;6.432;2023-02-15T07:09:24;72.32;;;23.30;;
37087;SDS011;23002;52.676;6.432;2023-02-15T07:11:51;49.67;;;19.98;;
37087;SDS011;23002;52.676;6.432;2023-02-15T07:14:37;55.35;;;22.35;;
37087;SDS011;23002;52.676;6.432;2023-02-15T07:17:04;57.63;;;24.35;;
37087;SDS011;23002;52.676;6.432;2023-02-15T07:19:39;60.35;;;24.95;;
37087;SDS011;23002;52.676;6.432;2023-02-15T07:22:07;54.45;;;24.30;;
37087;SDS011;23002;52.676;6.432;2023-02-15T07:24:34;66.43;;;23.98;;
37087;SDS011;23002;52.676;6.432;2023-02-15T07:27:01;52.30;;;22.17;;
37087;SDS011;23002;52.676;6.432;2023-02-15T07:29:28;54.50;;;21.33;;
37087;SDS011;23002;52.676;6.432;2023-02-15T07:31:55;45.88;;;20.90;;
37087;SDS011;23002;52.676;6.432;2023-02-15T07:34:22;44.78;;;20.98;;
37087;SDS011;23002;52.676;6.432;2023-02-15T07:36:50;46.75;;;21.48;;
37087;SDS011;23002;52.676;6.432;2023-02-15T07:39:19;52.10;;;21.42;;
37087;SDS011;23002;52.676;6.432;2023-02-15T07:41:46;52.00;;;21.50;;
37087;SDS011;23002;52.676;6.432;2023-02-15T07:44:14;53.22;;;21.45;;
37087;SDS011;23002;52.676;6.432;2023-02-15T07:46:41;53.03;;;22.33;;
37087;SDS011;23002;52.676;6.432;2023-02-15T07:49:08;54.55;;;21.52;;
37087;SDS011;23002;52.676;6.432;2023-02-15T07:51:36;60.40;;;20.77;;
37087;SDS011;23002;52.676;6.432;2023-02-15T07:54:03;46.53;;;20.02;;
37087;SDS011;23002;52.676;6.432;2023-02-15T07:56:30;49.70;;;21.75;;
37087;SDS011;23002;52.676;6.432;2023-02-15T07:59:00;47.67;;;18.90;;
37087;SDS011;23002;52.676;6.432;2023-02-15T08:01:30;47.80;;;21.90;;
37087;SDS011;23002;52.676;6.432;2023-02-15T08:03:57;52.22;;;20.27;;
37087;SDS011;23002;52.676;6.432;2023-02-15T08:06:26;55.20;;;20.42;;
37087;SDS011;23002;52.676;6.432;2023-02-15T08:08:53;65.10;;;22.52;;
37087;SDS011;23002;52.676;6.432;2023-02-15T08:11:21;57.35;;;21.10;;
37087;SDS011;23002;52.676;6.432;2023-02-15T08:13:52;56.28;;;21.35;;
37087;SDS011;23002;52.676;6.432;2023-02-15T08:16:24;55.50;;;22.52;;
37087;SDS011;23002;52.676;6.432;2023-02-15T08:18:52;49.47;;;21.57;;
37087;SDS011;23002;52.676;6.432;2023-02-15T08:21:20;61.20;;;21.98;;
37087;SDS011;23002;52.676;6.432;2023-02-15T08:23:50;60.35;;;22.90;;
37087;SDS011;23002;52.676;6.432;2023-02-15T08:26:17;65.90;;;22.40;;
37087;SDS011;23002;52.676;6.432;2023-02-15T08:28:45;68.35;;;22.17;;
37087;SDS011;23002;52.676;6.432;2023-02-15T08:31:13;59.42;;;23.67;;
37087;SDS011;23002;52.676;6.432;2023-02-15T08:33:41;61.03;;;23.52;;
37087;SDS011;23002;52.676;6.432;2023-02-15T08:36:10;51.80;;;21.35;;
37087;SDS011;23002;52.676;6.432;2023-02-15T08:38:37;55.80;;;22.83;;
37087;SDS011;23002;52.676;6.432;2023-02-15T08:41:11;59.17;;;23.27;;
37087;SDS011;23002;52.676;6.432;2023-02-15T08:43:39;74.55;;;25.40;;
37087;SDS011;23002;52.676;6.432;2023-02-15T08:46:07;65.63;;;24.25;;
37087;SDS011;23002;52.676;6.432;2023-02-15T08:48:35;62.85;;;23.48;;
37087;SDS011;23002;52.676;6.432;2023-02-15T08:51:09;73.65;;;25.83;;
37087;SDS011;23002;52.676;6.432;2023-02-15T08:53:37;65.93;;;24.13;;
37087;SDS011;23002;52.676;6.432;2023-02-15T08:56:05;71.85;;;24.58;;
37087;SDS011;23002;52.676;6.432;2023-02-15T08:58:32;71.68;;;25.80;;
37087;SDS011;23002;52.676;6.432;2023-02-15T09:01:00;64.05;;;23.48;;
37087;SDS011;23002;52.676;6.432;2023-02-15T09:03:30;72.18;;;24.55;;
37087;SDS011;23002;52.676;6.432;2023-02-15T09:05:58;64.05;;;25.27;;
37087;SDS011;23002;52.676;6.432;2023-02-15T09:08:26;68.30;;;25.13;;
37087;SDS011;23002;52.676;6.432;2023-02-15T09:10:53;70.85;;;25.88;;
37087;SDS011;23002;52.676;6.432;2023-02-15T09:13:21;67.00;;;25.25;;
37087;SDS011;23002;52.676;6.432;2023-02-15T09:15:48;68.05;;;24.75;;
37087;SDS011;23002;52.676;6.432;2023-02-15T09:18:15;70.47;;;24.98;;
37087;SDS011;23002;52.676;6.432;2023-02-15T09:20:43;70.15;;;24.80;;
37087;SDS011;23002;52.676;6.432;2023-02-15T09:23:11;76.90;;;25.75;;
37087;SDS011;23002;52.676;6.432;2023-02-15T09:25:51;67.72;;;25.40;;
37087;SDS011;23002;52.676;6.432;2023-02-15T09:28:18;56.00;;;23.55;;
37087;SDS011;23002;52.676;6.432;2023-02-15T09:30:46;54.83;;;22.65;;
37087;SDS011;23002;52.676;6.432;2023-02-15T09:33:13;51.05;;;21.90;;
37087;SDS011;23002;52.676;6.432;2023-02-15T09:35:40;54.22;;;21.52;;
37087;SDS011;23002;52.676;6.432;2023-02-15T09:38:07;48.10;;;20.70;;
37087;SDS011;23002;52.676;6.432;2023-02-15T09:40:37;39.10;;;18.58;;
37087;SDS011;23002;52.676;6.432;2023-02-15T09:43:18;27.52;;;13.20;;
37087;SDS011;23002;52.676;6.432;2023-02-15T09:53:47;27.48;;;13.15;;
37087;SDS011;23002;52.676;6.432;2023-02-15T10:09:09;29.00;;;13.02;;
37087;SDS011;23002;52.676;6.432;2023-02-15T10:27:40;27.30;;;12.55;;
37087;SDS011;23002;52.676;6.432;2023-02-15T10:30:12;29.73;;;13.98;;
37087;SDS011;23002;52.676;6.432;2023-02-15T10:32:52;27.02;;;13.05;;
37087;SDS011;23002;52.676;6.432;2023-02-15T10:40:37;26.73;;;12.80;;
37087;SDS011;23002;52.676;6.432;2023-02-15T10:43:20;27.17;;;12.73;;
37087;SDS011;23002;52.676;6.432;2023-02-15T10:48:55;27.05;;;12.45;;
37087;SDS011;23002;52.676;6.432;2023-02-15T11:06:44;26.50;;;12.93;;
37087;SDS011;23002;52.676;6.432;2023-02-15T11:09:14;27.63;;;13.32;;
37087;SDS011;23002;52.676;6.432;2023-02-15T11:11:45;25.33;;;12.23;;
37087;SDS011;23002;52.676;6.432;2023-02-15T11:16:54;27.80;;;13.15;;
37087;SDS011;23002;52.676;6.432;2023-02-15T11:19:24;26.08;;;12.65;;
37087;SDS011;23002;52.676;6.432;2023-02-15T11:21:55;26.23;;;12.80;;
37087;SDS011;23002;52.676;6.432;2023-02-15T11:24:26;26.73;;;12.82;;
37087;SDS011;23002;52.676;6.432;2023-02-15T11:26:56;21.13;;;11.98;;
37087;SDS011;23002;52.676;6.432;2023-02-15T11:29:25;22.95;;;11.68;;
37087;SDS011;23002;52.676;6.432;2023-02-15T11:31:54;25.05;;;12.85;;
37087;SDS011;23002;52.676;6.432;2023-02-15T11:36:53;24.02;;;12.13;;
37087;SDS011;23002;52.676;6.432;2023-02-15T11:39:21;30.75;;;13.40;;
37087;SDS011;23002;52.676;6.432;2023-02-15T11:41:51;30.27;;;13.10;;
37087;SDS011;23002;52.676;6.432;2023-02-15T11:44:27;27.92;;;12.38;;
37087;SDS011;23002;52.676;6.432;2023-02-15T11:46:58;24.08;;;11.95;;
37087;SDS011;23002;52.676;6.432;2023-02-15T11:49:29;28.60;;;13.27;;
37087;SDS011;23002;52.676;6.432;2023-02-15T11:51:57;25.45;;;13.20;;
37087;SDS011;23002;52.676;6.432;2023-02-15T11:54:26;24.10;;;11.63;;
37087;SDS011;23002;52.676;6.432;2023-02-15T11:56:59;27.58;;;12.35;;
37087;SDS011;23002;52.676;6.432;2023-02-15T11:59:29;22.92;;;11.48;;
37087;SDS011;23002;52.676;6.432;2023-02-15T12:01:57;26.17;;;12.65;;
37087;SDS011;23002;52.676;6.432;2023-02-15T12:04:26;29.30;;;13.10;;
37087;SDS011;23002;52.676;6.432;2023-02-15T12:07:01;26.33;;;11.93;;
37087;SDS011;23002;52.676;6.432;2023-02-15T12:09:51;27.83;;;12.55;;
37087;SDS011;23002;52.676;6.432;2023-02-15T12:12:20;24.65;;;11.77;;
37087;SDS011;23002;52.676;6.432;2023-02-15T12:14:50;22.55;;;11.35;;
37087;SDS011;23002;52.676;6.432;2023-02-15T12:17:18;20.65;;;10.75;;
37087;SDS011;23002;52.676;6.432;2023-02-15T12:19:47;20.95;;;10.90;;
37087;SDS011;23002;52.676;6.432;2023-02-15T12:22:23;28.55;;;11.15;;
37087;SDS011;23002;52.676;6.432;2023-02-15T12:24:51;26.58;;;12.57;;
37087;SDS011;23002;52.676;6.432;2023-02-15T12:27:29;23.10;;;10.90;;
37087;SDS011;23002;52.676;6.432;2023-02-15T12:30:01;25.30;;;10.82;;
37087;SDS011;23002;52.676;6.432;2023-02-15T12:32:33;26.15;;;11.43;;
37087;SDS011;23002;52.676;6.432;2023-02-15T12:35:08;29.30;;;12.00;;
37087;SDS011;23002;52.676;6.432;2023-02-15T12:37:37;23.58;;;11.13;;
37087;SDS011;23002;52.676;6.432;2023-02-15T12:40:26;27.05;;;11.80;;
37087;SDS011;23002;52.676;6.432;2023-02-15T12:42:54;24.30;;;10.68;;
37087;SDS011;23002;52.676;6.432;2023-02-15T12:45:23;26.98;;;11.68;;
37087;SDS011;23002;52.676;6.432;2023-02-15T12:48:36;26.83;;;13.57;;
37087;SDS011;23002;52.676;6.432;2023-02-15T12:50:41;28.98;;;11.90;;
37087;SDS011;23002;52.676;6.432;2023-02-15T12:56:05;28.63;;;11.88;;
37087;SDS011;23002;52.676;6.432;2023-02-15T12:58:41;26.92;;;12.07;;
37087;SDS011;23002;52.676;6.432;2023-02-15T13:03:51;27.75;;;11.48;;
37087;SDS011;23002;52.676;6.432;2023-02-15T13:06:19;25.92;;;11.48;;
37087;SDS011;23002;52.676;6.432;2023-02-15T13:08:48;28.40;;;11.63;;
37087;SDS011;23002;52.676;6.432;2023-02-15T13:11:24;25.20;;;11.95;;
37087;SDS011;23002;52.676;6.432;2023-02-15T13:16:30;26.65;;;11.38;;
37087;SDS011;23002;52.676;6.432;2023-02-15T13:18:58;23.25;;;11.70;;
37087;SDS011;23002;52.676;6.432;2023-02-15T13:21:32;28.42;;;11.55;;
37087;SDS011;23002;52.676;6.432;2023-02-15T13:24:00;24.48;;;10.90;;
37087;SDS011;23002;52.676;6.432;2023-02-15T13:26:29;25.35;;;11.18;;
37087;SDS011;23002;52.676;6.432;2023-02-15T13:28:58;19.30;;;10.38;;
37087;SDS011;23002;52.676;6.432;2023-02-15T13:31:28;26.17;;;12.07;;
37087;SDS011;23002;52.676;6.432;2023-02-15T13:34:12;23.00;;;11.25;;
37087;SDS011;23002;52.676;6.432;2023-02-15T13:37:05;26.70;;;11.30;;
37087;SDS011;23002;52.676;6.432;2023-02-15T13:39:37;25.45;;;11.23;;
37087;SDS011;23002;52.676;6.432;2023-02-15T13:52:30;22.50;;;9.40;;
37087;SDS011;23002;52.676;6.432;2023-02-15T14:05:26;21.58;;;9.48;;
37087;SDS011;23002;52.676;6.432;2023-02-15T14:13:43;18.55;;;9.88;;
37087;SDS011;23002;52.676;6.432;2023-02-15T14:16:33;26.10;;;11.23;;
37087;SDS011;23002;52.676;6.432;2023-02-15T14:19:16;23.10;;;9.82;;
37087;SDS011;23002;52.676;6.432;2023-02-15T14:32:11;23.17;;;10.55;;
37087;SDS011;23002;52.676;6.432;2023-02-15T14:34:44;24.38;;;10.60;;
37087;SDS011;23002;52.676;6.432;2023-02-15T14:37:13;22.20;;;9.15;;
37087;SDS011;23002;52.676;6.432;2023-02-15T14:39:47;24.15;;;10.07;;
37087;SDS011;23002;52.676;6.432;2023-02-15T14:42:45;21.42;;;9.82;;
37087;SDS011;23002;52.676;6.432;2023-02-15T14:45:20;22.13;;;10.02;;
37087;SDS011;23002;52.676;6.432;2023-02-15T14:47:50;27.20;;;10.07;;
37087;SDS011;23002;52.676;6.432;2023-02-15T14:50:38;22.58;;;10.52;;
37087;SDS011;23002;52.676;6.432;2023-02-15T14:55:42;24.35;;;9.30;;
37087;SDS011;23002;52.676;6.432;2023-02-15T14:58:12;22.73;;;9.88;;
37087;SDS011;23002;52.676;6.432;2023-02-15T15:00:40;21.20;;;10.07;;
37087;SDS011;23002;52.676;6.432;2023-02-15T15:03:12;24.58;;;10.77;;
37087;SDS011;23002;52.676;6.432;2023-02-15T15:05:50;21.83;;;9.52;;
37087;SDS011;23002;52.676;6.432;2023-02-15T15:08:38;21.88;;;9.38;;
37087;SDS011;23002;52.676;6.432;2023-02-15T15:14:07;24.40;;;10.45;;
37087;SDS011;23002;52.676;6.432;2023-02-15T15:19:02;33.00;;;10.88;;
37087;SDS011;23002;52.676;6.432;2023-02-15T15:29:47;22.98;;;10.45;;
37087;SDS011;23002;52.676;6.432;2023-02-15T15:32:14;24.92;;;10.45;;
37087;SDS011;23002;52.676;6.432;2023-02-15T15:50:30;24.05;;;10.43;;
37087;SDS011;23002;52.676;6.432;2023-02-15T15:52:58;23.95;;;10.10;;
37087;SDS011;23002;52.676;6.432;2023-02-15T15:55:27;24.20;;;10.35;;
37087;SDS011;23002;52.676;6.432;2023-02-15T15:57:57;25.63;;;11.48;;
37087;SDS011;23002;52.676;6.432;2023-02-15T16:03:29;25.35;;;10.95;;
37087;SDS011;23002;52.676;6.432;2023-02-15T16:05:56;27.98;;;11.45;;
37087;SDS011;23002;52.676;6.432;2023-02-15T16:10:54;26.52;;;11.55;;
37087;SDS011;23002;52.676;6.432;2023-02-15T16:13:21;25.70;;;10.32;;
37087;SDS011;23002;52.676;6.432;2023-02-15T16:15:52;23.13;;;11.13;;
37087;SDS011;23002;52.676;6.432;2023-02-15T16:18:20;25.23;;;10.40;;
37087;SDS011;23002;52.676;6.432;2023-02-15T16:20:55;29.42;;;11.35;;
37087;SDS011;23002;52.676;6.432;2023-02-15T16:23:39;23.60;;;10.98;;
37087;SDS011;23002;52.676;6.432;2023-02-15T16:28:58;25.05;;;11.45;;
37087;SDS011;23002;52.676;6.432;2023-02-15T16:31:25;27.33;;;11.55;;
37087;SDS011;23002;52.676;6.432;2023-02-15T16:33:53;21.40;;;10.30;;
37087;SDS011;23002;52.676;6.432;2023-02-15T16:36:25;24.77;;;11.57;;
37087;SDS011;23002;52.676;6.432;2023-02-15T16:43:53;27.70;;;12.63;;
37087;SDS011;23002;52.676;6.432;2023-02-15T16:46:25;25.02;;;11.02;;
37087;SDS011;23002;52.676;6.432;2023-02-15T16:48:54;24.13;;;12.07;;
37087;SDS011;23002;52.676;6.432;2023-02-15T16:51:26;26.33;;;11.60;;
37087;SDS011;23002;52.676;6.432;2023-02-15T16:56:25;24.38;;;11.50;;
37087;SDS011;23002;52.676;6.432;2023-02-15T16:58:54;29.95;;;12.57;;
37087;SDS011;23002;52.676;6.432;2023-02-15T17:01:24;25.08;;;11.38;;
37087;SDS011;23002;52.676;6.432;2023-02-15T17:04:09;31.77;;;12.20;;
37087;SDS011;23002;52.676;6.432;2023-02-15T17:06:37;32.55;;;12.32;;
37087;SDS011;23002;52.676;6.432;2023-02-15T17:09:05;32.05;;;13.30;;
37087;SDS011;23002;52.676;6.432;2023-02-15T17:11:33;26.40;;;12.73;;
37087;SDS011;23002;52.676;6.432;2023-02-15T17:16:53;30.48;;;13.05;;
37087;SDS011;23002;52.676;6.432;2023-02-15T17:19:23;34.10;;;12.55;;
37087;SDS011;23002;52.676;6.432;2023-02-15T17:21:56;33.17;;;12.65;;
37087;SDS011;23002;52.676;6.432;2023-02-15T17:27:01;33.20;;;13.85;;
37087;SDS011;23002;52.676;6.432;2023-02-15T17:29:38;31.95;;;13.35;;
37087;SDS011;23002;52.676;6.432;2023-02-15T17:32:13;30.42;;;12.40;;
37087;SDS011;23002;52.676;6.432;2023-02-15T17:37:12;30.02;;;13.80;;
37087;SDS011;23002;52.676;6.432;2023-02-15T17:39:40;35.90;;;14.43;;
37087;SDS011;23002;52.676;6.432;2023-02-15T17:42:07;30.65;;;12.75;;
37087;SDS011;23002;52.676;6.432;2023-02-15T17:44:34;29.90;;;12.50;;
37087;SDS011;23002;52.676;6.432;2023-02-15T17:47:02;31.58;;;14.88;;
37087;SDS011;23002;52.676;6.432;2023-02-15T17:49:30;33.20;;;14.40;;
37087;SDS011;23002;52.676;6.432;2023-02-15T17:52:00;34.75;;;13.93;;
37087;SDS011;23002;52.676;6.432;2023-02-15T17:54:27;34.90;;;13.85;;
37087;SDS011;23002;52.676;6.432;2023-02-15T17:57:14;34.20;;;14.82;;
37087;SDS011;23002;52.676;6.432;2023-02-15T17:59:42;28.52;;;13.25;;
37087;SDS011;23002;52.676;6.432;2023-02-15T18:02:29;32.92;;;14.50;;
37087;SDS011;23002;52.676;6.432;2023-02-15T18:05:17;33.63;;;14.68;;
37087;SDS011;23002;52.676;6.432;2023-02-15T18:08:03;29.98;;;13.90;;
37087;SDS011;23002;52.676;6.432;2023-02-15T18:10:49;35.92;;;14.43;;